createdAt,value
2023-02-26T00:00:22.104Z,67.93
2023-02-26T00:01:22.109Z,67.82
2023-02-26T00:02:22.130Z,67.72
2023-02-26T00:03:22.097Z,67.93
2023-02-26T00:04:22.052Z,67.93
2023-02-26T00:05:22.049Z,68.03
2023-02-26T00:06:22.077Z,67.82
2023-02-26T00:07:22.029Z,67.61
2023-02-26T00:08:22.009Z,67.61
2023-02-26T00:09:22.003Z,67.61
2023-02-26T00:10:21.994Z,67.61
2023-02-26T00:11:21.969Z,67.61
2023-02-26T00:12:21.965Z,67.61
2023-02-26T00:13:21.963Z,67.48
2023-02-26T00:14:21.956Z,67.48
2023-02-26T00:15:22.331Z,67.38
2023-02-26T00:16:21.921Z,67.27
2023-02-26T00:17:21.940Z,67.17
2023-02-26T00:18:21.931Z,67.17
2023-02-26T00:19:21.887Z,67.17
2023-02-26T00:20:21.866Z,67.38
2023-02-26T00:21:21.865Z,67.27
2023-02-26T00:22:21.848Z,67.27
2023-02-26T00:23:21.835Z,67.27
2023-02-26T00:24:21.851Z,67.27
2023-02-26T00:25:21.835Z,67.38
2023-02-26T00:26:21.812Z,67.17
2023-02-26T00:27:21.788Z,66.83
2023-02-26T00:28:21.786Z,66.54
2023-02-26T00:29:21.768Z,66.62
2023-02-26T00:30:21.767Z,66.51
2023-02-26T00:31:21.871Z,66.51
2023-02-26T00:32:21.875Z,66.62
2023-02-26T00:33:21.727Z,66.62
2023-02-26T00:34:21.730Z,66.62
2023-02-26T00:35:21.730Z,66.83
2023-02-26T00:36:21.749Z,66.93
2023-02-26T00:37:21.680Z,67.03
2023-02-26T00:38:21.682Z,67.03
2023-02-26T00:39:21.663Z,67.17
2023-02-26T00:40:21.650Z,67.14
2023-02-26T00:41:21.684Z,67.17
2023-02-26T00:42:21.627Z,67.17
2023-02-26T00:43:21.616Z,67.58
2023-02-26T00:44:21.598Z,68.10
2023-02-26T00:45:21.587Z,68.32
2023-02-26T00:46:21.598Z,68.42
2023-02-26T00:47:21.578Z,68.21
2023-02-26T00:48:21.561Z,68.32
2023-02-26T00:49:21.548Z,68.49
2023-02-26T00:50:21.541Z,68.38
2023-02-26T00:51:21.527Z,67.86
2023-02-26T00:52:21.527Z,68.00
2023-02-26T00:53:21.508Z,67.86
2023-02-26T00:54:21.488Z,67.97
2023-02-26T00:55:21.485Z,67.76
2023-02-26T00:56:21.468Z,68.07
2023-02-26T00:57:21.468Z,67.97
2023-02-26T00:58:21.466Z,67.76
2023-02-26T00:59:21.436Z,67.86
2023-02-26T01:00:21.426Z,67.83
2023-02-26T01:01:21.438Z,67.86
2023-02-26T01:02:21.404Z,68.18
2023-02-26T01:03:21.396Z,68.18
2023-02-26T01:04:21.409Z,68.38
2023-02-26T01:05:21.378Z,68.28
2023-02-26T01:06:21.374Z,68.38
2023-02-26T01:07:21.346Z,68.38
2023-02-26T01:08:21.333Z,68.60
2023-02-26T01:09:21.336Z,68.38
2023-02-26T01:10:21.335Z,68.60
2023-02-26T01:11:22.077Z,68.60
2023-02-26T01:12:21.283Z,68.70
2023-02-26T01:13:21.291Z,69.01
2023-02-26T01:14:21.263Z,69.32
2023-02-26T01:15:21.261Z,69.12
2023-02-26T01:16:21.264Z,69.12
2023-02-26T01:17:21.242Z,69.32
2023-02-26T01:18:21.244Z,69.53
2023-02-26T01:19:21.217Z,69.74
2023-02-26T01:20:21.202Z,69.53
2023-02-26T01:21:21.204Z,69.84
2023-02-26T01:22:21.192Z,70.19
2023-02-26T01:23:21.173Z,70.26
2023-02-26T01:24:21.163Z,70.19
2023-02-26T01:25:21.141Z,70.81
2023-02-26T01:26:21.134Z,70.61
2023-02-26T01:27:21.149Z,70.81
2023-02-26T01:28:21.110Z,71.23
2023-02-26T01:29:21.110Z,71.44
2023-02-26T01:30:21.088Z,71.65
2023-02-26T01:31:21.209Z,71.65
2023-02-26T01:32:21.167Z,71.78
2023-02-26T01:33:21.075Z,72.30
2023-02-26T01:34:21.050Z,72.51
2023-02-26T01:35:21.050Z,72.41
2023-02-26T01:36:21.047Z,72.69
2023-02-26T01:37:21.010Z,72.27
2023-02-26T01:38:21.021Z,72.17
2023-02-26T01:39:20.995Z,72.48
2023-02-26T01:40:20.980Z,72.38
2023-02-26T01:41:20.974Z,72.83
2023-02-26T01:42:20.950Z,73.00
2023-02-26T01:43:20.955Z,72.93
2023-02-26T01:44:20.956Z,73.14
2023-02-26T01:45:20.934Z,73.10
2023-02-26T01:46:20.950Z,73.00
2023-02-26T01:47:20.912Z,72.79
2023-02-26T01:48:20.894Z,73.00
2023-02-26T01:49:20.900Z,73.21
2023-02-26T01:50:20.873Z,73.24
2023-02-26T01:51:20.863Z,73.42
2023-02-26T01:52:20.852Z,73.21
2023-02-26T01:53:20.831Z,73.21
2023-02-26T01:54:21.780Z,73.21
2023-02-26T01:55:20.846Z,73.66
2023-02-26T01:56:20.811Z,73.76
2023-02-26T01:57:20.796Z,74.07
2023-02-26T01:58:20.785Z,74.18
2023-02-26T01:59:20.773Z,73.94
2023-02-26T02:00:20.771Z,73.42
2023-02-26T02:01:20.761Z,73.63
2023-02-26T02:02:20.782Z,73.59
2023-02-26T02:03:20.810Z,73.38
2023-02-26T02:04:20.712Z,72.97
2023-02-26T02:05:20.704Z,72.86
2023-02-26T02:06:20.693Z,72.86
2023-02-26T02:07:20.713Z,72.62
2023-02-26T02:08:20.674Z,72.31
2023-02-26T02:09:20.661Z,71.89
2023-02-26T02:10:20.655Z,71.86
2023-02-26T02:11:20.640Z,71.89
2023-02-26T02:12:20.629Z,72.10
2023-02-26T02:13:20.628Z,72.20
2023-02-26T02:14:20.606Z,72.86
2023-02-26T02:15:20.606Z,73.28
2023-02-26T02:16:20.591Z,73.49
2023-02-26T02:17:20.583Z,73.42
2023-02-26T02:18:20.582Z,73.73
2023-02-26T02:19:20.547Z,73.80
2023-02-26T02:20:20.537Z,73.49
2023-02-26T02:21:20.524Z,72.97
2023-02-26T02:22:20.505Z,73.52
2023-02-26T02:23:20.507Z,73.49
2023-02-26T02:24:20.503Z,73.38
2023-02-26T02:25:20.472Z,73.52
2023-02-26T02:26:20.464Z,73.94
2023-02-26T02:27:20.455Z,74.04
2023-02-26T02:28:20.442Z,74.15
2023-02-26T02:29:20.437Z,74.15
2023-02-26T02:30:20.422Z,74.39
2023-02-26T02:31:20.507Z,74.25
2023-02-26T02:32:20.491Z,74.04
2023-02-26T02:33:20.391Z,74.18
2023-02-26T02:34:20.371Z,74.18
2023-02-26T02:35:20.381Z,74.49
2023-02-26T02:36:20.351Z,74.49
2023-02-26T02:37:20.340Z,74.07
2023-02-26T02:38:20.328Z,73.97
2023-02-26T02:39:20.320Z,74.21
2023-02-26T02:40:20.312Z,75.05
2023-02-26T02:41:20.322Z,74.95
2023-02-26T02:42:20.289Z,75.18
2023-02-26T02:43:20.300Z,75.92
2023-02-26T02:44:20.259Z,75.71
2023-02-26T02:45:20.252Z,76.12
2023-02-26T02:46:20.327Z,76.02
2023-02-26T02:47:20.271Z,75.71
2023-02-26T02:48:20.220Z,75.71
2023-02-26T02:49:20.209Z,76.37
2023-02-26T02:50:20.199Z,76.57
2023-02-26T02:51:20.192Z,76.79
2023-02-26T02:52:20.177Z,76.79
2023-02-26T02:53:20.179Z,76.47
2023-02-26T02:54:20.155Z,76.79
2023-02-26T02:55:20.154Z,77.00
2023-02-26T02:56:20.129Z,76.89
2023-02-26T02:57:20.140Z,77.10
2023-02-26T02:58:20.125Z,77.00
2023-02-26T02:59:20.111Z,77.41
2023-02-26T03:00:20.088Z,76.89
2023-02-26T03:01:27.126Z,76.89
2023-02-26T03:02:20.111Z,77.00
2023-02-26T03:03:20.785Z,76.89
2023-02-26T03:04:20.068Z,76.72
2023-02-26T03:05:20.040Z,76.61
2023-02-26T03:06:20.033Z,76.92
2023-02-26T03:07:20.013Z,77.03
2023-02-26T03:08:20.000Z,77.14
2023-02-26T03:09:19.992Z,77.03
2023-02-26T03:10:19.991Z,77.17
2023-02-26T03:11:19.976Z,77.38
2023-02-26T03:12:19.957Z,77.69
2023-02-26T03:13:19.976Z,78.21
2023-02-26T03:14:19.942Z,77.90
2023-02-26T03:15:19.971Z,78.32
2023-02-26T03:16:20.022Z,78.42
2023-02-26T03:17:19.948Z,78.63
2023-02-26T03:18:19.890Z,78.42
2023-02-26T03:19:19.881Z,78.53
2023-02-26T03:20:19.861Z,78.32
2023-02-26T03:21:19.862Z,78.32
2023-02-26T03:22:19.862Z,78.42
2023-02-26T03:23:19.843Z,78.74
2023-02-26T03:24:19.824Z,78.84
2023-02-26T03:25:19.814Z,78.53
2023-02-26T03:26:19.803Z,78.88
2023-02-26T03:27:19.795Z,79.19
2023-02-26T03:28:19.803Z,79.08
2023-02-26T03:29:19.781Z,79.19
2023-02-26T03:30:19.753Z,79.05
2023-02-26T03:31:19.812Z,78.56
2023-02-26T03:32:19.858Z,78.56
2023-02-26T03:33:19.734Z,78.77
2023-02-26T03:34:19.737Z,79.19
2023-02-26T03:35:19.707Z,78.67
2023-02-26T03:36:19.695Z,78.67
2023-02-26T03:37:19.696Z,79.40
2023-02-26T03:38:19.684Z,79.19
2023-02-26T03:39:19.680Z,79.05
2023-02-26T03:40:19.682Z,78.42
2023-02-26T03:41:19.644Z,78.42
2023-02-26T03:42:19.632Z,78.11
2023-02-26T03:43:19.634Z,77.90
2023-02-26T03:44:19.612Z,77.90
2023-02-26T03:45:19.610Z,77.90
2023-02-26T03:46:19.662Z,77.69
2023-02-26T03:47:19.588Z,77.90
2023-02-26T03:48:19.574Z,77.80
2023-02-26T03:49:19.553Z,77.80
2023-02-26T03:50:19.549Z,77.48
2023-02-26T03:51:19.544Z,77.34
2023-02-26T03:52:19.544Z,77.03
2023-02-26T03:53:19.524Z,76.92
2023-02-26T03:54:19.493Z,76.72
2023-02-26T03:55:19.514Z,76.51
2023-02-26T03:56:19.472Z,76.09
2023-02-26T03:57:19.474Z,76.09
2023-02-26T03:58:19.486Z,75.67
2023-02-26T03:59:19.457Z,75.46
2023-02-26T04:00:19.445Z,75.57
2023-02-26T04:01:19.430Z,75.78
2023-02-26T04:02:19.436Z,75.67
2023-02-26T04:03:19.452Z,75.15
2023-02-26T04:04:19.482Z,75.05
2023-02-26T04:05:19.380Z,75.29
2023-02-26T04:06:19.361Z,75.29
2023-02-26T04:07:19.363Z,75.39
2023-02-26T04:08:19.340Z,75.39
2023-02-26T04:09:19.340Z,76.16
2023-02-26T04:10:19.335Z,76.79
2023-02-26T04:11:19.310Z,76.65
2023-02-26T04:12:19.300Z,76.23
2023-02-26T04:13:19.381Z,76.02
2023-02-26T04:14:19.294Z,76.06
2023-02-26T04:15:19.292Z,76.57
2023-02-26T04:16:19.330Z,76.68
2023-02-26T04:17:19.254Z,76.89
2023-02-26T04:18:19.232Z,76.44
2023-02-26T04:19:19.226Z,76.16
2023-02-26T04:20:19.209Z,76.37
2023-02-26T04:21:19.229Z,76.37
2023-02-26T04:22:19.193Z,76.47
2023-02-26T04:23:19.196Z,76.37
2023-02-26T04:24:19.169Z,76.37
2023-02-26T04:25:19.158Z,76.16
2023-02-26T04:26:19.153Z,76.12
2023-02-26T04:27:19.159Z,76.02
2023-02-26T04:28:19.124Z,75.71
2023-02-26T04:29:19.117Z,75.71
2023-02-26T04:30:19.097Z,75.60
2023-02-26T04:31:19.183Z,75.18
2023-02-26T04:32:19.091Z,75.08
2023-02-26T04:33:19.104Z,74.56
2023-02-26T04:34:19.054Z,74.87
2023-02-26T04:35:19.054Z,75.08
2023-02-26T04:36:19.033Z,74.77
2023-02-26T04:37:19.037Z,74.56
2023-02-26T04:38:19.002Z,74.69
2023-02-26T04:39:19.020Z,74.59
2023-02-26T04:40:18.981Z,74.69
2023-02-26T04:41:18.985Z,74.80
2023-02-26T04:42:18.962Z,74.73
2023-02-26T04:43:18.984Z,74.94
2023-02-26T04:44:18.960Z,75.67
2023-02-26T04:45:18.941Z,75.98
2023-02-26T04:46:18.980Z,75.98
2023-02-26T04:47:18.928Z,75.98
2023-02-26T04:48:18.924Z,76.30
2023-02-26T04:49:18.888Z,76.40
2023-02-26T04:50:18.891Z,76.61
2023-02-26T04:51:18.870Z,76.72
2023-02-26T04:52:18.905Z,76.72
2023-02-26T04:53:18.848Z,76.57
2023-02-26T04:54:18.835Z,76.26
2023-02-26T04:55:18.828Z,75.74
2023-02-26T04:56:18.829Z,75.67
2023-02-26T04:57:18.809Z,75.78
2023-02-26T04:58:18.787Z,75.67
2023-02-26T04:59:18.777Z,76.30
2023-02-26T05:00:18.767Z,76.40
2023-02-26T05:01:18.787Z,76.40
2023-02-26T05:02:18.758Z,76.40
2023-02-26T05:03:18.738Z,76.47
2023-02-26T05:04:18.787Z,76.06
2023-02-26T05:05:18.718Z,75.63
2023-02-26T05:06:18.707Z,75.74
2023-02-26T05:07:18.711Z,75.71
2023-02-26T05:08:18.679Z,75.60
2023-02-26T05:09:18.682Z,75.39
2023-02-26T05:10:18.676Z,75.50
2023-02-26T05:11:18.709Z,75.39
2023-02-26T05:12:18.649Z,75.71
2023-02-26T05:13:18.650Z,75.81
2023-02-26T05:14:18.630Z,75.50
2023-02-26T05:15:18.609Z,75.39
2023-02-26T05:16:18.669Z,75.71
2023-02-26T05:17:18.591Z,75.71
2023-02-26T05:18:18.581Z,75.85
2023-02-26T05:19:18.578Z,75.81
2023-02-26T05:20:18.550Z,75.50
2023-02-26T05:21:18.548Z,75.29
2023-02-26T05:22:18.551Z,75.85
2023-02-26T05:23:18.533Z,75.95
2023-02-26T05:24:18.539Z,75.74
2023-02-26T05:25:18.527Z,75.63
2023-02-26T05:26:18.501Z,75.71
2023-02-26T05:27:18.491Z,75.18
2023-02-26T05:28:18.475Z,74.77
2023-02-26T05:29:18.460Z,74.56
2023-02-26T05:30:18.447Z,74.77
2023-02-26T05:31:18.470Z,75.08
2023-02-26T05:32:18.461Z,75.18
2023-02-26T05:33:18.418Z,75.29
2023-02-26T05:34:18.422Z,75.81
2023-02-26T05:35:18.387Z,75.81
2023-02-26T05:36:18.399Z,75.92
2023-02-26T05:37:18.370Z,75.71
2023-02-26T05:38:18.357Z,75.81
2023-02-26T05:39:18.348Z,75.81
2023-02-26T05:40:18.337Z,75.81
2023-02-26T05:41:18.325Z,75.60
2023-02-26T05:42:18.332Z,75.92
2023-02-26T05:43:18.320Z,75.67
2023-02-26T05:44:18.296Z,75.46
2023-02-26T05:45:18.275Z,74.84
2023-02-26T05:46:18.292Z,74.77
2023-02-26T05:47:18.274Z,74.94
2023-02-26T05:48:18.244Z,74.63
2023-02-26T05:49:18.244Z,74.32
2023-02-26T05:50:18.235Z,74.28
2023-02-26T05:51:18.213Z,73.97
2023-02-26T05:52:18.214Z,73.55
2023-02-26T05:53:18.215Z,73.45
2023-02-26T05:54:18.183Z,73.34
2023-02-26T05:55:18.173Z,73.24
2023-02-26T05:56:18.151Z,73.34
2023-02-26T05:57:18.142Z,73.34
2023-02-26T05:58:18.132Z,73.13
2023-02-26T05:59:18.141Z,72.82
2023-02-26T06:00:18.118Z,73.03
2023-02-26T06:01:18.112Z,73.07
2023-02-26T06:02:18.133Z,73.48
2023-02-26T06:03:18.160Z,73.48
2023-02-26T06:04:18.072Z,73.58
2023-02-26T06:05:18.071Z,73.48
2023-02-26T06:06:18.054Z,73.38
2023-02-26T06:07:18.028Z,73.38
2023-02-26T06:08:18.020Z,72.92
2023-02-26T06:09:18.009Z,72.61
2023-02-26T06:10:17.999Z,72.54
2023-02-26T06:11:18.016Z,72.75
2023-02-26T06:12:17.981Z,73.27
2023-02-26T06:13:17.968Z,72.92
2023-02-26T06:14:17.947Z,72.41
2023-02-26T06:15:17.968Z,72.30
2023-02-26T06:16:18.039Z,72.30
2023-02-26T06:17:17.943Z,71.98
2023-02-26T06:18:17.911Z,72.16
2023-02-26T06:19:17.896Z,72.99
2023-02-26T06:20:17.888Z,73.07
2023-02-26T06:21:17.876Z,72.85
2023-02-26T06:22:17.866Z,72.99
2023-02-26T06:23:18.032Z,73.20
2023-02-26T06:24:17.848Z,73.07
2023-02-26T06:25:17.844Z,72.64
2023-02-26T06:26:17.824Z,72.54
2023-02-26T06:27:17.805Z,72.75
2023-02-26T06:28:17.814Z,72.96
2023-02-26T06:29:17.805Z,72.75
2023-02-26T06:30:17.787Z,72.64
2023-02-26T06:31:17.848Z,72.23
2023-02-26T06:32:17.861Z,72.44
2023-02-26T06:33:17.748Z,72.33
2023-02-26T06:34:17.831Z,72.47
2023-02-26T06:35:17.728Z,72.89
2023-02-26T06:36:17.856Z,72.58
2023-02-26T06:37:17.696Z,72.19
2023-02-26T06:38:17.703Z,71.57
2023-02-26T06:39:17.685Z,71.36
2023-02-26T06:40:17.690Z,71.15
2023-02-26T06:41:17.660Z,71.04
2023-02-26T06:42:19.976Z,70.94
2023-02-26T06:43:17.640Z,71.15
2023-02-26T06:44:17.639Z,71.08
2023-02-26T06:45:17.639Z,71.26
2023-02-26T06:46:17.655Z,70.63
2023-02-26T06:47:17.603Z,70.53
2023-02-26T06:48:17.595Z,70.28
2023-02-26T06:49:17.588Z,70.18
2023-02-26T06:50:17.563Z,69.97
2023-02-26T06:51:17.574Z,70.21
2023-02-26T06:52:17.551Z,70.28
2023-02-26T06:53:17.547Z,70.39
2023-02-26T06:54:17.525Z,69.94
2023-02-26T06:55:17.518Z,69.94
2023-02-26T06:56:17.497Z,69.42
2023-02-26T06:57:17.494Z,69.49
2023-02-26T06:58:17.486Z,69.42
2023-02-26T06:59:17.462Z,69.53
2023-02-26T07:00:17.571Z,69.76
2023-02-26T07:01:17.458Z,70.18
2023-02-26T07:02:17.497Z,70.36
2023-02-26T07:03:17.427Z,69.73
2023-02-26T07:04:19.764Z,69.97
2023-02-26T07:05:17.397Z,69.84
2023-02-26T07:06:26.793Z,69.42
2023-02-26T07:07:18.398Z,68.94
2023-02-26T07:08:17.368Z,67.83
2023-02-26T07:09:17.399Z,66.56
2023-02-26T07:10:17.352Z,65.48
2023-02-26T07:11:17.326Z,65.42
2023-02-26T07:12:17.325Z,63.66
2023-02-26T07:13:17.331Z,63.29
2023-02-26T07:14:17.295Z,62.09
2023-02-26T07:15:17.284Z,61.49
2023-02-26T07:16:17.265Z,58.90
2023-02-26T07:17:17.255Z,58.64
2023-02-26T07:18:17.267Z,59.34
2023-02-26T07:19:17.243Z,58.85
2023-02-26T07:20:17.227Z,58.95
2023-02-26T07:21:17.213Z,58.23
2023-02-26T07:22:17.214Z,59.09
2023-02-26T07:23:17.206Z,59.34
2023-02-26T07:24:17.199Z,57.73
2023-02-26T07:25:17.170Z,57.45
2023-02-26T07:26:17.164Z,57.66
2023-02-26T07:27:17.147Z,57.01
2023-02-26T07:28:17.145Z,56.49
2023-02-26T07:29:17.124Z,56.91
2023-02-26T07:30:17.140Z,56.44
2023-02-26T07:31:17.201Z,55.43
2023-02-26T07:32:17.179Z,55.43
2023-02-26T07:33:17.088Z,55.18
2023-02-26T07:34:17.076Z,54.55
2023-02-26T07:35:17.054Z,55.05
2023-02-26T07:36:17.069Z,55.74
2023-02-26T07:37:17.037Z,55.10
2023-02-26T07:38:19.217Z,57.30
2023-02-26T07:39:17.011Z,58.28
2023-02-26T07:40:17.003Z,58.47
2023-02-26T07:41:16.993Z,57.84
2023-02-26T07:42:17.002Z,58.49
2023-02-26T07:43:16.982Z,59.38
2023-02-26T07:44:16.949Z,60.55
2023-02-26T07:45:16.939Z,61.40
2023-02-26T07:46:16.987Z,61.92
2023-02-26T07:47:16.919Z,61.74
2023-02-26T07:48:17.681Z,62.24
2023-02-26T07:49:16.898Z,61.92
2023-02-26T07:50:16.891Z,61.64
2023-02-26T07:51:16.877Z,62.40
2023-02-26T07:52:16.871Z,63.09
2023-02-26T07:53:16.879Z,61.76
2023-02-26T07:54:16.862Z,60.88
2023-02-26T07:55:16.828Z,58.38
2023-02-26T07:56:16.817Z,56.13
2023-02-26T07:57:16.818Z,55.20
2023-02-26T07:58:16.798Z,56.44
2023-02-26T07:59:16.796Z,55.41
2023-02-26T08:00:16.777Z,54.12
2023-02-26T08:01:16.824Z,54.22
2023-02-26T08:02:16.756Z,56.13
2023-02-26T08:03:16.745Z,56.98
2023-02-26T08:04:16.783Z,55.28
2023-02-26T08:05:16.735Z,53.91
2023-02-26T08:06:16.715Z,53.37
2023-02-26T08:07:16.694Z,53.13
2023-02-26T08:08:16.685Z,55.07
2023-02-26T08:09:16.672Z,55.93
2023-02-26T08:10:16.655Z,56.83
2023-02-26T08:11:16.664Z,56.37
2023-02-26T08:12:16.634Z,58.23
2023-02-26T08:13:16.625Z,60.03
2023-02-26T08:14:16.616Z,60.21
2023-02-26T08:15:16.623Z,60.10
2023-02-26T08:16:16.640Z,60.24
2023-02-26T08:17:16.585Z,60.41
2023-02-26T08:18:16.591Z,59.89
2023-02-26T08:19:16.561Z,59.87
2023-02-26T08:20:16.563Z,59.42
2023-02-26T08:21:16.537Z,59.19
2023-02-26T08:22:16.564Z,58.94
2023-02-26T08:23:16.516Z,59.53
2023-02-26T08:24:16.516Z,58.85
2023-02-26T08:25:16.494Z,57.56
2023-02-26T08:26:16.483Z,56.39
2023-02-26T08:27:16.482Z,55.72
2023-02-26T08:28:16.483Z,56.85
2023-02-26T08:29:16.443Z,57.74
2023-02-26T08:30:16.443Z,58.13
2023-02-26T08:31:16.522Z,58.31
2023-02-26T08:32:16.566Z,58.96
2023-02-26T08:33:16.417Z,59.25
2023-02-26T08:34:16.426Z,58.18
2023-02-26T08:35:16.384Z,58.39
2023-02-26T08:36:16.384Z,57.56
2023-02-26T08:37:16.371Z,57.71
2023-02-26T08:38:16.353Z,55.72
2023-02-26T08:39:16.341Z,53.63
2023-02-26T08:40:16.349Z,53.70
2023-02-26T08:41:16.335Z,52.23
2023-02-26T08:42:16.326Z,51.97
2023-02-26T08:43:16.303Z,53.67
2023-02-26T08:44:16.294Z,53.96
2023-02-26T08:45:16.278Z,53.67
2023-02-26T08:46:16.339Z,53.80
2023-02-26T08:47:21.758Z,54.53
2023-02-26T08:48:17.273Z,54.50
2023-02-26T08:49:16.269Z,55.38
2023-02-26T08:50:16.229Z,54.19
2023-02-26T08:51:16.209Z,54.11
2023-02-26T08:52:16.206Z,53.78
2023-02-26T08:53:16.220Z,52.91
2023-02-26T08:54:16.174Z,53.08
2023-02-26T08:55:16.246Z,53.47
2023-02-26T08:56:16.168Z,53.05
2023-02-26T08:57:16.197Z,53.72
2023-02-26T08:58:16.136Z,53.86
2023-02-26T08:59:16.115Z,52.91
2023-02-26T09:00:16.105Z,52.18
2023-02-26T09:01:16.096Z,53.47
2023-02-26T09:02:16.097Z,53.31
2023-02-26T09:03:16.184Z,53.18
2023-02-26T09:04:16.066Z,54.43
2023-02-26T09:05:16.057Z,54.74
2023-02-26T09:06:16.044Z,53.73
2023-02-26T09:07:16.034Z,53.34
2023-02-26T09:08:16.026Z,53.44
2023-02-26T09:09:16.123Z,54.11
2023-02-26T09:10:16.016Z,54.82
2023-02-26T09:11:15.989Z,53.65
2023-02-26T09:12:15.987Z,52.85
2023-02-26T09:13:15.976Z,53.08
2023-02-26T09:14:15.954Z,53.96
2023-02-26T09:15:15.956Z,55.49
2023-02-26T09:16:15.985Z,54.09
2023-02-26T09:17:15.914Z,52.62
2023-02-26T09:18:15.906Z,52.62
2023-02-26T09:19:15.894Z,52.70
2023-02-26T09:20:15.885Z,52.47
2023-02-26T09:21:15.884Z,51.68
2023-02-26T09:22:15.867Z,52.98
2023-02-26T09:23:15.869Z,53.78
2023-02-26T09:24:15.835Z,53.11
2023-02-26T09:25:15.847Z,52.03
2023-02-26T09:26:15.843Z,51.33
2023-02-26T09:27:15.819Z,51.66
2023-02-26T09:28:15.836Z,51.68
2023-02-26T09:29:15.798Z,52.44
2023-02-26T09:30:15.783Z,52.75
2023-02-26T09:31:15.900Z,53.67
2023-02-26T09:32:15.890Z,55.15
2023-02-26T09:33:15.764Z,55.82
2023-02-26T09:34:15.726Z,56.83
2023-02-26T09:35:15.724Z,55.82
2023-02-26T09:36:23.052Z,55.38
2023-02-26T09:37:15.719Z,54.39
2023-02-26T09:38:15.671Z,55.66
2023-02-26T09:39:15.669Z,56.10
2023-02-26T09:40:15.669Z,56.08
2023-02-26T09:41:15.652Z,55.66
2023-02-26T09:42:15.629Z,55.54
2023-02-26T09:43:15.660Z,55.15
2023-02-26T09:44:15.612Z,55.82
2023-02-26T09:45:15.598Z,55.18
2023-02-26T09:46:15.594Z,54.53
2023-02-26T09:47:15.579Z,53.18
2023-02-26T09:48:15.575Z,53.67
2023-02-26T09:49:15.658Z,53.55
2023-02-26T09:50:15.540Z,52.64
2023-02-26T09:51:15.539Z,53.52
2023-02-26T09:52:15.519Z,54.24
2023-02-26T09:53:15.519Z,54.50
2023-02-26T09:54:15.529Z,53.88
2023-02-26T09:55:15.522Z,53.23
2023-02-26T09:56:15.479Z,52.20
2023-02-26T09:57:15.486Z,52.36
2023-02-26T09:58:16.258Z,52.85
2023-02-26T09:59:15.442Z,52.56
2023-02-26T10:00:15.454Z,53.10
2023-02-26T10:01:15.422Z,53.75
2023-02-26T10:02:15.417Z,53.72
2023-02-26T10:03:15.403Z,54.32
2023-02-26T10:04:15.406Z,53.47
2023-02-26T10:05:15.394Z,52.75
2023-02-26T10:06:15.394Z,52.36
2023-02-26T10:07:15.362Z,52.36
2023-02-26T10:08:15.344Z,53.00
2023-02-26T10:09:15.333Z,52.87
2023-02-26T10:10:15.328Z,51.94
2023-02-26T10:11:15.314Z,52.38
2023-02-26T10:12:15.324Z,53.20
2023-02-26T10:13:15.295Z,52.90
2023-02-26T10:14:15.280Z,53.20
2023-02-26T10:15:15.277Z,53.10
2023-02-26T10:16:15.279Z,53.49
2023-02-26T10:17:15.263Z,52.67
2023-02-26T10:18:15.235Z,52.64
2023-02-26T10:19:15.224Z,52.15
2023-02-26T10:20:15.411Z,52.51
2023-02-26T10:21:15.368Z,53.33
2023-02-26T10:22:15.394Z,53.41
2023-02-26T10:23:15.210Z,53.28
2023-02-26T10:24:15.166Z,52.56
2023-02-26T10:25:15.156Z,52.38
2023-02-26T10:26:15.149Z,52.51
2023-02-26T10:27:15.217Z,52.51
2023-02-26T10:28:15.142Z,53.10
2023-02-26T10:29:15.183Z,52.40
2023-02-26T10:30:15.117Z,52.90
2023-02-26T10:31:15.120Z,52.80
2023-02-26T10:32:15.329Z,52.48
2023-02-26T10:33:15.178Z,52.28
2023-02-26T10:34:15.055Z,52.59
2023-02-26T10:35:15.089Z,52.77
2023-02-26T10:36:15.027Z,52.31
2023-02-26T10:37:15.065Z,51.48
2023-02-26T10:38:15.007Z,50.73
2023-02-26T10:39:15.007Z,50.80
2023-02-26T10:40:14.985Z,51.21
2023-02-26T10:41:14.996Z,51.63
2023-02-26T10:42:14.968Z,51.11
2023-02-26T10:43:15.076Z,50.90
2023-02-26T10:44:14.944Z,51.14
2023-02-26T10:45:14.935Z,51.45
2023-02-26T10:46:15.042Z,51.26
2023-02-26T10:47:14.935Z,52.17
2023-02-26T10:48:14.906Z,51.84
2023-02-26T10:49:14.894Z,51.40
2023-02-26T10:50:14.881Z,50.89
2023-02-26T10:51:14.872Z,51.28
2023-02-26T10:52:14.863Z,50.55
2023-02-26T10:53:14.880Z,51.07
2023-02-26T10:54:14.834Z,51.71
2023-02-26T10:55:14.824Z,51.50
2023-02-26T10:56:14.826Z,51.50
2023-02-26T10:57:14.813Z,51.28
2023-02-26T10:58:14.792Z,51.04
2023-02-26T10:59:16.631Z,50.92
2023-02-26T11:00:14.766Z,50.50
2023-02-26T11:01:14.816Z,50.81
2023-02-26T11:02:14.767Z,50.42
2023-02-26T11:03:14.757Z,50.96
2023-02-26T11:04:14.725Z,51.07
2023-02-26T11:05:14.737Z,50.78
2023-02-26T11:06:14.742Z,51.50
2023-02-26T11:07:14.698Z,52.12
2023-02-26T11:08:14.712Z,52.83
2023-02-26T11:09:14.677Z,52.62
2023-02-26T11:10:14.699Z,52.18
2023-02-26T11:11:14.658Z,51.64
2023-02-26T11:12:14.658Z,51.04
2023-02-26T11:13:14.639Z,50.92
2023-02-26T11:14:14.633Z,50.71
2023-02-26T11:15:14.608Z,50.73
2023-02-26T11:16:14.680Z,51.45
2023-02-26T11:17:14.606Z,50.42
2023-02-26T11:18:14.579Z,51.45
2023-02-26T11:19:14.577Z,51.66
2023-02-26T11:20:14.570Z,52.23
2023-02-26T11:21:14.553Z,51.20
2023-02-26T11:22:14.558Z,51.64
2023-02-26T11:23:14.538Z,50.71
2023-02-26T11:24:14.509Z,50.01
2023-02-26T11:25:14.499Z,51.09
2023-02-26T11:26:14.490Z,52.15
2023-02-26T11:27:14.479Z,52.64
2023-02-26T11:28:14.501Z,51.92
2023-02-26T11:29:14.459Z,51.42
2023-02-26T11:30:14.439Z,51.63
2023-02-26T11:31:14.547Z,51.92
2023-02-26T11:32:14.483Z,52.93
2023-02-26T11:33:14.416Z,51.92
2023-02-26T11:34:14.436Z,51.71
2023-02-26T11:35:14.389Z,51.58
2023-02-26T11:36:14.380Z,51.23
2023-02-26T11:37:14.379Z,51.31
2023-02-26T11:38:16.917Z,50.71
2023-02-26T11:39:14.348Z,50.63
2023-02-26T11:40:14.401Z,51.15
2023-02-26T11:41:14.339Z,51.02
2023-02-26T11:42:14.333Z,51.43
2023-02-26T11:43:14.310Z,51.33
2023-02-26T11:44:14.299Z,51.43
2023-02-26T11:45:14.309Z,51.82
2023-02-26T11:46:14.313Z,50.99
2023-02-26T11:47:14.259Z,51.23
2023-02-26T11:48:14.246Z,51.72
2023-02-26T11:49:14.235Z,50.87
2023-02-26T11:50:14.355Z,50.38
2023-02-26T11:51:14.236Z,49.88
2023-02-26T11:52:14.217Z,50.63
2023-02-26T11:53:14.198Z,51.61
2023-02-26T11:54:14.192Z,52.20
2023-02-26T11:55:14.166Z,52.39
2023-02-26T11:56:14.154Z,51.89
2023-02-26T11:57:14.162Z,52.00
2023-02-26T11:58:14.134Z,52.36
2023-02-26T11:59:14.164Z,52.15
2023-02-26T12:00:14.133Z,51.95
2023-02-26T12:01:14.102Z,52.70
2023-02-26T12:02:14.203Z,53.08
2023-02-26T12:03:14.083Z,52.78
2023-02-26T12:04:14.164Z,52.49
2023-02-26T12:05:14.051Z,52.80
2023-02-26T12:06:14.041Z,53.00
2023-02-26T12:07:14.046Z,52.83
2023-02-26T12:08:14.031Z,53.13
2023-02-26T12:09:14.020Z,52.91
2023-02-26T12:10:14.001Z,52.20
2023-02-26T12:11:14.108Z,53.16
2023-02-26T12:12:13.971Z,53.34
2023-02-26T12:13:13.973Z,52.95
2023-02-26T12:14:13.970Z,53.28
2023-02-26T12:15:13.973Z,53.36
2023-02-26T12:16:13.969Z,53.31
2023-02-26T12:17:13.920Z,52.59
2023-02-26T12:18:15.731Z,52.41
2023-02-26T12:19:13.920Z,51.68
2023-02-26T12:20:13.903Z,51.37
2023-02-26T12:21:13.882Z,52.00
2023-02-26T12:22:13.929Z,52.49
2023-02-26T12:23:13.866Z,52.80
2023-02-26T12:24:13.850Z,53.23
2023-02-26T12:25:13.901Z,52.72
2023-02-26T12:26:13.851Z,53.03
2023-02-26T12:27:13.817Z,53.63
2023-02-26T12:28:13.800Z,52.70
2023-02-26T12:29:13.798Z,53.31
2023-02-26T12:30:13.787Z,53.42
2023-02-26T12:31:13.853Z,52.91
2023-02-26T12:32:14.028Z,52.72
2023-02-26T12:33:13.761Z,53.23
2023-02-26T12:34:13.742Z,53.23
2023-02-26T12:35:13.741Z,53.11
2023-02-26T12:36:13.724Z,53.52
2023-02-26T12:37:13.735Z,53.42
2023-02-26T12:38:15.338Z,53.03
2023-02-26T12:39:13.689Z,53.47
2023-02-26T12:40:13.677Z,53.78
2023-02-26T12:41:13.670Z,53.78
2023-02-26T12:42:13.654Z,53.99
2023-02-26T12:43:13.665Z,53.91
2023-02-26T12:44:13.675Z,54.11
2023-02-26T12:45:13.637Z,54.32
2023-02-26T12:46:13.829Z,54.32
2023-02-26T12:47:13.604Z,54.50
2023-02-26T12:48:13.594Z,54.27
2023-02-26T12:49:13.604Z,54.17
2023-02-26T12:50:13.578Z,54.06
2023-02-26T12:51:13.572Z,54.14
2023-02-26T12:52:13.544Z,53.75